sensor_id;sensor_type;location;lat;lon;timestamp;temperature;humidity
26579;DHT22;14227;47.674;19.320;2023-05-29T00:02:08;10.60;68.80
26579;DHT22;14227;47.674;19.320;2023-05-29T00:04:34;10.60;68.90
26579;DHT22;14227;47.674;19.320;2023-05-29T00:07:01;10.60;68.40
26579;DHT22;14227;47.674;19.320;2023-05-29T00:09:26;10.50;68.40
26579;DHT22;14227;47.674;19.320;2023-05-29T00:11:53;10.50;68.60
26579;DHT22;14227;47.674;19.320;2023-05-29T00:14:19;10.50;68.60
26579;DHT22;14227;47.674;19.320;2023-05-29T00:16:46;10.40;68.60
26579;DHT22;14227;47.674;19.320;2023-05-29T00:19:13;10.40;68.50
26579;DHT22;14227;47.674;19.320;2023-05-29T00:21:39;10.40;68.50
26579;DHT22;14227;47.674;19.320;2023-05-29T00:24:06;10.30;68.90
26579;DHT22;14227;47.674;19.320;2023-05-29T00:26:31;10.30;69.10
26579;DHT22;14227;47.674;19.320;2023-05-29T00:28:57;10.30;69.10
26579;DHT22;14227;47.674;19.320;2023-05-29T00:31:23;10.30;69.20
26579;DHT22;14227;47.674;19.320;2023-05-29T00:33:50;10.30;68.80
26579;DHT22;14227;47.674;19.320;2023-05-29T00:36:15;10.30;68.40
26579;DHT22;14227;47.674;19.320;2023-05-29T00:38:41;10.20;68.20
26579;DHT22;14227;47.674;19.320;2023-05-29T00:41:07;10.20;68.30
26579;DHT22;14227;47.674;19.320;2023-05-29T00:43:33;10.10;68.10
26579;DHT22;14227;47.674;19.320;2023-05-29T00:45:59;10.10;68.20
26579;DHT22;14227;47.674;19.320;2023-05-29T00:48:25;10.10;68.30
26579;DHT22;14227;47.674;19.320;2023-05-29T00:50:51;10.00;68.00
26579;DHT22;14227;47.674;19.320;2023-05-29T00:53:17;10.10;67.90
26579;DHT22;14227;47.674;19.320;2023-05-29T00:55:43;10.00;67.50
26579;DHT22;14227;47.674;19.320;2023-05-29T00:58:09;10.00;68.00
26579;DHT22;14227;47.674;19.320;2023-05-29T01:00:35;9.90;68.70
26579;DHT22;14227;47.674;19.320;2023-05-29T01:03:03;9.90;68.70
26579;DHT22;14227;47.674;19.320;2023-05-29T01:05:34;9.90;68.80
26579;DHT22;14227;47.674;19.320;2023-05-29T01:08:02;9.90;68.80
26579;DHT22;14227;47.674;19.320;2023-05-29T01:10:28;9.90;69.00
26579;DHT22;14227;47.674;19.320;2023-05-29T01:13:18;9.90;69.50
26579;DHT22;14227;47.674;19.320;2023-05-29T01:21:32;9.90;69.50
26579;DHT22;14227;47.674;19.320;2023-05-29T01:29:15;9.90;69.30
26579;DHT22;14227;47.674;19.320;2023-05-29T01:31:44;9.80;69.10
26579;DHT22;14227;47.674;19.320;2023-05-29T01:34:09;9.80;69.20
26579;DHT22;14227;47.674;19.320;2023-05-29T01:36:35;9.80;69.60
26579;DHT22;14227;47.674;19.320;2023-05-29T01:39:02;9.80;69.50
26579;DHT22;14227;47.674;19.320;2023-05-29T01:41:29;9.70;69.50
26579;DHT22;14227;47.674;19.320;2023-05-29T01:43:57;9.70;69.70
26579;DHT22;14227;47.674;19.320;2023-05-29T01:46:23;9.70;69.60
26579;DHT22;14227;47.674;19.320;2023-05-29T01:48:50;9.70;69.90
26579;DHT22;14227;47.674;19.320;2023-05-29T01:51:17;9.70;69.60
26579;DHT22;14227;47.674;19.320;2023-05-29T01:53:43;9.70;69.50
26579;DHT22;14227;47.674;19.320;2023-05-29T01:56:10;9.60;69.60
26579;DHT22;14227;47.674;19.320;2023-05-29T01:58:38;9.60;69.50
26579;DHT22;14227;47.674;19.320;2023-05-29T02:01:05;9.60;69.30
26579;DHT22;14227;47.674;19.320;2023-05-29T02:03:32;9.60;69.20
26579;DHT22;14227;47.674;19.320;2023-05-29T02:05:58;9.60;69.20
26579;DHT22;14227;47.674;19.320;2023-05-29T02:08:25;9.50;69.50
26579;DHT22;14227;47.674;19.320;2023-05-29T02:10:51;9.50;69.50
26579;DHT22;14227;47.674;19.320;2023-05-29T02:13:17;9.50;69.70
26579;DHT22;14227;47.674;19.320;2023-05-29T02:15:43;9.50;69.50
26579;DHT22;14227;47.674;19.320;2023-05-29T02:18:13;9.50;69.50
26579;DHT22;14227;47.674;19.320;2023-05-29T02:20:40;9.40;69.40
26579;DHT22;14227;47.674;19.320;2023-05-29T02:23:09;9.40;69.20
26579;DHT22;14227;47.674;19.320;2023-05-29T02:25:35;9.40;68.90
26579;DHT22;14227;47.674;19.320;2023-05-29T02:28:01;9.40;69.20
26579;DHT22;14227;47.674;19.320;2023-05-29T02:30:28;9.30;69.30
26579;DHT22;14227;47.674;19.320;2023-05-29T02:32:54;9.30;69.10
26579;DHT22;14227;47.674;19.320;2023-05-29T02:35:20;9.30;68.70
26579;DHT22;14227;47.674;19.320;2023-05-29T02:37:48;9.20;68.90
26579;DHT22;14227;47.674;19.320;2023-05-29T02:40:14;9.20;69.00
26579;DHT22;14227;47.674;19.320;2023-05-29T02:42:40;9.20;69.10
26579;DHT22;14227;47.674;19.320;2023-05-29T02:45:06;9.20;69.50
26579;DHT22;14227;47.674;19.320;2023-05-29T02:47:32;9.20;69.60
26579;DHT22;14227;47.674;19.320;2023-05-29T02:49:58;9.20;69.30
26579;DHT22;14227;47.674;19.320;2023-05-29T02:52:23;9.20;69.40
26579;DHT22;14227;47.674;19.320;2023-05-29T02:54:49;9.20;69.30
26579;DHT22;14227;47.674;19.320;2023-05-29T02:57:15;9.20;69.30
26579;DHT22;14227;47.674;19.320;2023-05-29T02:59:41;9.20;69.50
26579;DHT22;14227;47.674;19.320;2023-05-29T03:02:07;9.20;69.30
26579;DHT22;14227;47.674;19.320;2023-05-29T03:04:33;9.20;69.80
26579;DHT22;14227;47.674;19.320;2023-05-29T03:06:59;9.20;70.30
26579;DHT22;14227;47.674;19.320;2023-05-29T03:09:25;9.30;69.90
26579;DHT22;14227;47.674;19.320;2023-05-29T03:11:51;9.20;69.70
26579;DHT22;14227;47.674;19.320;2023-05-29T03:14:17;9.20;69.40
26579;DHT22;14227;47.674;19.320;2023-05-29T03:16:44;9.20;69.40
26579;DHT22;14227;47.674;19.320;2023-05-29T03:19:10;9.20;70.10
26579;DHT22;14227;47.674;19.320;2023-05-29T03:21:36;9.30;71.10
26579;DHT22;14227;47.674;19.320;2023-05-29T03:24:02;9.30;71.60
26579;DHT22;14227;47.674;19.320;2023-05-29T03:26:28;9.30;71.30
26579;DHT22;14227;47.674;19.320;2023-05-29T03:28:54;9.40;71.10
26579;DHT22;14227;47.674;19.320;2023-05-29T03:31:20;9.50;71.00
26579;DHT22;14227;47.674;19.320;2023-05-29T03:33:47;9.50;71.00
26579;DHT22;14227;47.674;19.320;2023-05-29T03:36:13;9.60;70.40
26579;DHT22;14227;47.674;19.320;2023-05-29T03:38:39;9.60;70.80
26579;DHT22;14227;47.674;19.320;2023-05-29T03:41:05;9.60;71.10
26579;DHT22;14227;47.674;19.320;2023-05-29T03:43:30;9.70;71.80
26579;DHT22;14227;47.674;19.320;2023-05-29T03:45:56;9.80;71.50
26579;DHT22;14227;47.674;19.320;2023-05-29T03:48:22;9.80;71.60
26579;DHT22;14227;47.674;19.320;2023-05-29T03:50:48;9.90;71.40
26579;DHT22;14227;47.674;19.320;2023-05-29T03:53:14;9.90;71.70
26579;DHT22;14227;47.674;19.320;2023-05-29T03:55:40;10.00;70.80
26579;DHT22;14227;47.674;19.320;2023-05-29T03:58:07;10.10;71.40
26579;DHT22;14227;47.674;19.320;2023-05-29T04:00:32;10.20;71.30
26579;DHT22;14227;47.674;19.320;2023-05-29T04:02:58;10.30;71.30
26579;DHT22;14227;47.674;19.320;2023-05-29T04:05:24;10.40;71.40
26579;DHT22;14227;47.674;19.320;2023-05-29T04:07:51;10.50;71.50
26579;DHT22;14227;47.674;19.320;2023-05-29T04:10:17;10.50;71.80
26579;DHT22;14227;47.674;19.320;2023-05-29T04:12:42;10.60;72.40
26579;DHT22;14227;47.674;19.320;2023-05-29T04:15:08;10.70;71.90
26579;DHT22;14227;47.674;19.320;2023-05-29T04:17:34;10.80;71.00
26579;DHT22;14227;47.674;19.320;2023-05-29T04:20:00;10.90;69.90
26579;DHT22;14227;47.674;19.320;2023-05-29T04:22:31;11.00;70.70
26579;DHT22;14227;47.674;19.320;2023-05-29T04:24:57;11.10;70.60
26579;DHT22;14227;47.674;19.320;2023-05-29T04:27:22;11.20;70.30
26579;DHT22;14227;47.674;19.320;2023-05-29T04:29:48;11.30;70.90
26579;DHT22;14227;47.674;19.320;2023-05-29T04:32:14;11.50;71.90
26579;DHT22;14227;47.674;19.320;2023-05-29T04:34:39;11.60;72.80
26579;DHT22;14227;47.674;19.320;2023-05-29T04:37:06;11.70;73.40
26579;DHT22;14227;47.674;19.320;2023-05-29T04:39:32;11.90;73.40
26579;DHT22;14227;47.674;19.320;2023-05-29T04:41:57;12.00;72.30
26579;DHT22;14227;47.674;19.320;2023-05-29T04:44:26;12.10;70.90
26579;DHT22;14227;47.674;19.320;2023-05-29T04:46:52;12.30;71.10
26579;DHT22;14227;47.674;19.320;2023-05-29T04:49:19;12.40;71.20
26579;DHT22;14227;47.674;19.320;2023-05-29T04:51:46;12.50;71.40
26579;DHT22;14227;47.674;19.320;2023-05-29T04:54:12;12.70;70.90
26579;DHT22;14227;47.674;19.320;2023-05-29T04:56:38;12.80;71.40
26579;DHT22;14227;47.674;19.320;2023-05-29T04:59:06;13.00;72.50
26579;DHT22;14227;47.674;19.320;2023-05-29T05:01:32;13.20;71.80
26579;DHT22;14227;47.674;19.320;2023-05-29T05:03:59;13.30;71.00
26579;DHT22;14227;47.674;19.320;2023-05-29T05:06:25;13.50;71.10
26579;DHT22;14227;47.674;19.320;2023-05-29T05:08:54;13.60;71.80
26579;DHT22;14227;47.674;19.320;2023-05-29T05:11:22;13.90;71.60
26579;DHT22;14227;47.674;19.320;2023-05-29T05:13:48;14.10;71.50
26579;DHT22;14227;47.674;19.320;2023-05-29T05:16:14;14.40;70.60
26579;DHT22;14227;47.674;19.320;2023-05-29T05:18:40;14.60;69.90
26579;DHT22;14227;47.674;19.320;2023-05-29T05:21:06;14.80;69.40
26579;DHT22;14227;47.674;19.320;2023-05-29T05:23:32;15.00;69.00
26579;DHT22;14227;47.674;19.320;2023-05-29T05:25:58;15.20;68.30
26579;DHT22;14227;47.674;19.320;2023-05-29T05:28:24;15.30;68.00
26579;DHT22;14227;47.674;19.320;2023-05-29T05:30:49;15.50;67.40
26579;DHT22;14227;47.674;19.320;2023-05-29T05:33:16;15.70;67.00
26579;DHT22;14227;47.674;19.320;2023-05-29T05:35:42;15.90;66.30
26579;DHT22;14227;47.674;19.320;2023-05-29T05:38:08;16.10;64.10
26579;DHT22;14227;47.674;19.320;2023-05-29T05:40:33;16.40;63.10
26579;DHT22;14227;47.674;19.320;2023-05-29T05:42:59;16.80;62.30
26579;DHT22;14227;47.674;19.320;2023-05-29T05:45:25;17.30;61.60
26579;DHT22;14227;47.674;19.320;2023-05-29T05:47:50;17.80;60.90
26579;DHT22;14227;47.674;19.320;2023-05-29T05:50:16;18.20;60.00
26579;DHT22;14227;47.674;19.320;2023-05-29T05:52:42;18.60;57.20
26579;DHT22;14227;47.674;19.320;2023-05-29T05:55:07;19.10;57.70
26579;DHT22;14227;47.674;19.320;2023-05-29T05:57:33;19.50;57.30
26579;DHT22;14227;47.674;19.320;2023-05-29T06:00:01;19.90;55.50
26579;DHT22;14227;47.674;19.320;2023-05-29T06:02:30;20.30;54.70
26579;DHT22;14227;47.674;19.320;2023-05-29T06:04:55;20.70;52.30
26579;DHT22;14227;47.674;19.320;2023-05-29T06:07:21;21.10;50.30
26579;DHT22;14227;47.674;19.320;2023-05-29T06:09:47;21.50;48.70
26579;DHT22;14227;47.674;19.320;2023-05-29T06:12:13;21.80;45.90
26579;DHT22;14227;47.674;19.320;2023-05-29T06:14:38;22.20;46.20
26579;DHT22;14227;47.674;19.320;2023-05-29T06:17:04;22.70;46.70
26579;DHT22;14227;47.674;19.320;2023-05-29T06:19:30;23.20;45.50
26579;DHT22;14227;47.674;19.320;2023-05-29T06:21:56;23.70;44.30
26579;DHT22;14227;47.674;19.320;2023-05-29T06:24:21;24.30;41.60
26579;DHT22;14227;47.674;19.320;2023-05-29T06:26:47;24.70;39.50
26579;DHT22;14227;47.674;19.320;2023-05-29T06:29:13;25.20;37.20
26579;DHT22;14227;47.674;19.320;2023-05-29T06:31:46;25.70;35.90
26579;DHT22;14227;47.674;19.320;2023-05-29T06:34:24;25.80;32.00
26579;DHT22;14227;47.674;19.320;2023-05-29T06:36:50;26.00;31.80
26579;DHT22;14227;47.674;19.320;2023-05-29T06:39:16;26.20;30.40
26579;DHT22;14227;47.674;19.320;2023-05-29T06:41:43;26.50;31.30
26579;DHT22;14227;47.674;19.320;2023-05-29T06:44:09;26.60;30.50
26579;DHT22;14227;47.674;19.320;2023-05-29T06:46:35;26.80;29.60
26579;DHT22;14227;47.674;19.320;2023-05-29T06:49:00;26.90;29.40
26579;DHT22;14227;47.674;19.320;2023-05-29T06:51:26;27.30;28.50
26579;DHT22;14227;47.674;19.320;2023-05-29T06:53:52;27.50;28.30
26579;DHT22;14227;47.674;19.320;2023-05-29T06:56:18;27.50;28.10
26579;DHT22;14227;47.674;19.320;2023-05-29T06:58:43;27.50;28.30
26579;DHT22;14227;47.674;19.320;2023-05-29T07:01:11;27.40;28.30
26579;DHT22;14227;47.674;19.320;2023-05-29T07:03:37;27.30;28.20
26579;DHT22;14227;47.674;19.320;2023-05-29T07:06:03;27.20;28.30
26579;DHT22;14227;47.674;19.320;2023-05-29T07:08:29;27.50;28.30
26579;DHT22;14227;47.674;19.320;2023-05-29T07:10:56;27.90;28.50
26579;DHT22;14227;47.674;19.320;2023-05-29T07:13:22;28.30;27.30
26579;DHT22;14227;47.674;19.320;2023-05-29T07:15:50;28.90;26.00
26579;DHT22;14227;47.674;19.320;2023-05-29T07:18:16;29.50;26.00
26579;DHT22;14227;47.674;19.320;2023-05-29T07:20:42;30.10;25.60
26579;DHT22;14227;47.674;19.320;2023-05-29T07:23:08;30.40;23.80
26579;DHT22;14227;47.674;19.320;2023-05-29T07:25:33;30.90;22.70
26579;DHT22;14227;47.674;19.320;2023-05-29T07:28:23;31.10;22.30
26579;DHT22;14227;47.674;19.320;2023-05-29T07:30:49;31.40;21.10
26579;DHT22;14227;47.674;19.320;2023-05-29T07:33:16;31.70;22.10
26579;DHT22;14227;47.674;19.320;2023-05-29T07:35:42;32.10;21.50
26579;DHT22;14227;47.674;19.320;2023-05-29T07:38:07;32.40;20.40
26579;DHT22;14227;47.674;19.320;2023-05-29T07:40:33;32.60;19.80
26579;DHT22;14227;47.674;19.320;2023-05-29T07:42:59;32.80;20.10
26579;DHT22;14227;47.674;19.320;2023-05-29T07:45:26;33.10;19.60
26579;DHT22;14227;47.674;19.320;2023-05-29T07:47:52;33.30;18.70
26579;DHT22;14227;47.674;19.320;2023-05-29T07:50:19;33.50;18.10
26579;DHT22;14227;47.674;19.320;2023-05-29T07:52:45;33.80;18.70
26579;DHT22;14227;47.674;19.320;2023-05-29T07:55:11;33.90;18.40
26579;DHT22;14227;47.674;19.320;2023-05-29T07:57:37;34.00;17.80
26579;DHT22;14227;47.674;19.320;2023-05-29T08:00:03;34.30;17.90
26579;DHT22;14227;47.674;19.320;2023-05-29T08:02:35;34.70;17.90
26579;DHT22;14227;47.674;19.320;2023-05-29T08:05:04;34.70;17.70
26579;DHT22;14227;47.674;19.320;2023-05-29T08:07:31;35.10;17.20
26579;DHT22;14227;47.674;19.320;2023-05-29T08:09:57;35.40;16.70
26579;DHT22;14227;47.674;19.320;2023-05-29T08:12:23;35.60;16.50
26579;DHT22;14227;47.674;19.320;2023-05-29T08:14:49;35.90;16.60
26579;DHT22;14227;47.674;19.320;2023-05-29T08:17:15;36.10;16.10
26579;DHT22;14227;47.674;19.320;2023-05-29T08:19:40;36.50;16.40
26579;DHT22;14227;47.674;19.320;2023-05-29T08:22:06;36.60;15.40
26579;DHT22;14227;47.674;19.320;2023-05-29T08:24:32;36.50;15.70
26579;DHT22;14227;47.674;19.320;2023-05-29T08:26:58;36.70;15.70
26579;DHT22;14227;47.674;19.320;2023-05-29T08:29:23;37.10;15.80
26579;DHT22;14227;47.674;19.320;2023-05-29T08:31:49;37.40;14.80
26579;DHT22;14227;47.674;19.320;2023-05-29T08:34:15;37.60;14.20
26579;DHT22;14227;47.674;19.320;2023-05-29T08:36:41;37.60;14.60
26579;DHT22;14227;47.674;19.320;2023-05-29T08:39:07;37.80;15.00
26579;DHT22;14227;47.674;19.320;2023-05-29T08:41:42;38.20;14.60
26579;DHT22;14227;47.674;19.320;2023-05-29T08:44:13;38.50;14.30
26579;DHT22;14227;47.674;19.320;2023-05-29T08:46:40;38.50;12.60
26579;DHT22;14227;47.674;19.320;2023-05-29T08:49:08;38.50;13.70
26579;DHT22;14227;47.674;19.320;2023-05-29T08:51:37;38.50;13.60
26579;DHT22;14227;47.674;19.320;2023-05-29T08:54:05;38.60;13.10
26579;DHT22;14227;47.674;19.320;2023-05-29T08:56:31;38.80;12.50
26579;DHT22;14227;47.674;19.320;2023-05-29T14:01:53;39.20;12.00
26579;DHT22;14227;47.674;19.320;2023-05-29T14:04:18;39.40;12.20
26579;DHT22;14227;47.674;19.320;2023-05-29T14:06:44;39.60;12.00
26579;DHT22;14227;47.674;19.320;2023-05-29T14:09:10;39.90;11.30
26579;DHT22;14227;47.674;19.320;2023-05-29T14:11:39;39.90;11.20
26579;DHT22;14227;47.674;19.320;2023-05-29T14:14:06;39.70;11.10
26579;DHT22;14227;47.674;19.320;2023-05-29T14:16:32;39.40;10.90
26579;DHT22;14227;47.674;19.320;2023-05-29T14:19:00;38.70;11.70
26579;DHT22;14227;47.674;19.320;2023-05-29T14:21:26;37.90;12.00
26579;DHT22;14227;47.674;19.320;2023-05-29T14:23:52;37.10;13.30
26579;DHT22;14227;47.674;19.320;2023-05-29T14:26:18;36.30;14.10
26579;DHT22;14227;47.674;19.320;2023-05-29T14:28:44;35.50;14.40
26579;DHT22;14227;47.674;19.320;2023-05-29T14:31:10;34.80;15.60
26579;DHT22;14227;47.674;19.320;2023-05-29T14:33:37;34.20;16.50
26579;DHT22;14227;47.674;19.320;2023-05-29T14:36:03;33.60;17.10
26579;DHT22;14227;47.674;19.320;2023-05-29T14:38:29;33.00;18.80
26579;DHT22;14227;47.674;19.320;2023-05-29T14:40:55;32.50;18.20
26579;DHT22;14227;47.674;19.320;2023-05-29T14:43:22;32.00;19.00
26579;DHT22;14227;47.674;19.320;2023-05-29T14:45:48;31.60;19.50
26579;DHT22;14227;47.674;19.320;2023-05-29T14:48:13;31.20;20.10
26579;DHT22;14227;47.674;19.320;2023-05-29T14:50:42;30.80;20.80
26579;DHT22;14227;47.674;19.320;2023-05-29T14:53:08;30.50;21.00
26579;DHT22;14227;47.674;19.320;2023-05-29T14:55:34;30.20;22.60
26579;DHT22;14227;47.674;19.320;2023-05-29T14:58:06;30.00;22.80
26579;DHT22;14227;47.674;19.320;2023-05-29T15:00:33;29.80;23.40
26579;DHT22;14227;47.674;19.320;2023-05-29T15:02:59;29.50;23.60
26579;DHT22;14227;47.674;19.320;2023-05-29T15:05:26;29.30;24.70
26579;DHT22;14227;47.674;19.320;2023-05-29T15:07:52;29.10;24.50
26579;DHT22;14227;47.674;19.320;2023-05-29T15:10:20;29.00;25.20
26579;DHT22;14227;47.674;19.320;2023-05-29T15:12:46;28.90;25.70
26579;DHT22;14227;47.674;19.320;2023-05-29T15:15:12;28.90;25.50
26579;DHT22;14227;47.674;19.320;2023-05-29T15:17:38;29.00;25.70
26579;DHT22;14227;47.674;19.320;2023-05-29T15:20:05;29.00;25.30
26579;DHT22;14227;47.674;19.320;2023-05-29T15:22:32;29.00;25.00
26579;DHT22;14227;47.674;19.320;2023-05-29T15:24:57;29.00;25.90
26579;DHT22;14227;47.674;19.320;2023-05-29T15:27:23;28.80;25.70
26579;DHT22;14227;47.674;19.320;2023-05-29T15:29:52;28.60;25.70
26579;DHT22;14227;47.674;19.320;2023-05-29T15:32:18;28.50;26.20
26579;DHT22;14227;47.674;19.320;2023-05-29T15:34:44;28.40;26.60
26579;DHT22;14227;47.674;19.320;2023-05-29T15:37:09;28.20;28.00
26579;DHT22;14227;47.674;19.320;2023-05-29T15:39:35;28.00;28.60
26579;DHT22;14227;47.674;19.320;2023-05-29T15:42:03;27.90;28.50
26579;DHT22;14227;47.674;19.320;2023-05-29T15:44:29;27.70;28.40
26579;DHT22;14227;47.674;19.320;2023-05-29T15:46:55;27.50;28.30
26579;DHT22;14227;47.674;19.320;2023-05-29T15:49:20;27.40;28.90
26579;DHT22;14227;47.674;19.320;2023-05-29T15:51:47;27.40;29.20
26579;DHT22;14227;47.674;19.320;2023-05-29T15:54:13;27.40;29.50
26579;DHT22;14227;47.674;19.320;2023-05-29T15:56:39;27.50;29.60
26579;DHT22;14227;47.674;19.320;2023-05-29T15:59:04;27.60;28.70
26579;DHT22;14227;47.674;19.320;2023-05-29T16:01:31;27.60;28.70
26579;DHT22;14227;47.674;19.320;2023-05-29T16:03:56;27.90;29.50
26579;DHT22;14227;47.674;19.320;2023-05-29T16:06:22;28.00;28.60
26579;DHT22;14227;47.674;19.320;2023-05-29T16:08:48;28.20;28.70
26579;DHT22;14227;47.674;19.320;2023-05-29T16:11:14;28.30;27.40
26579;DHT22;14227;47.674;19.320;2023-05-29T16:13:39;28.50;25.70
26579;DHT22;14227;47.674;19.320;2023-05-29T16:16:07;28.50;25.90
26579;DHT22;14227;47.674;19.320;2023-05-29T16:18:33;28.50;24.90
26579;DHT22;14227;47.674;19.320;2023-05-29T16:20:58;28.50;24.70
26579;DHT22;14227;47.674;19.320;2023-05-29T16:23:25;28.50;26.50
26579;DHT22;14227;47.674;19.320;2023-05-29T16:25:51;28.50;27.00
26579;DHT22;14227;47.674;19.320;2023-05-29T16:28:17;28.50;27.50
26579;DHT22;14227;47.674;19.320;2023-05-29T16:30:43;28.70;27.40
26579;DHT22;14227;47.674;19.320;2023-05-29T16:33:08;28.90;27.60
26579;DHT22;14227;47.674;19.320;2023-05-29T16:35:34;29.00;27.30
26579;DHT22;14227;47.674;19.320;2023-05-29T16:38:00;29.20;27.20
26579;DHT22;14227;47.674;19.320;2023-05-29T16:40:26;29.40;27.30
26579;DHT22;14227;47.674;19.320;2023-05-29T16:42:51;29.60;26.80
26579;DHT22;14227;47.674;19.320;2023-05-29T16:45:17;29.70;26.10
26579;DHT22;14227;47.674;19.320;2023-05-29T16:47:43;29.70;25.20
26579;DHT22;14227;47.674;19.320;2023-05-29T16:50:09;29.80;25.90
26579;DHT22;14227;47.674;19.320;2023-05-29T16:52:34;29.80;25.70
26579;DHT22;14227;47.674;19.320;2023-05-29T16:55:00;29.90;26.50
26579;DHT22;14227;47.674;19.320;2023-05-29T16:57:28;29.90;26.90
26579;DHT22;14227;47.674;19.320;2023-05-29T16:59:54;29.90;27.00
26579;DHT22;14227;47.674;19.320;2023-05-29T17:02:20;29.70;26.80
26579;DHT22;14227;47.674;19.320;2023-05-29T17:04:46;29.60;27.20
26579;DHT22;14227;47.674;19.320;2023-05-29T17:07:12;29.40;26.70
26579;DHT22;14227;47.674;19.320;2023-05-29T17:09:38;29.20;26.90
26579;DHT22;14227;47.674;19.320;2023-05-29T17:12:04;28.90;27.30
26579;DHT22;14227;47.674;19.320;2023-05-29T17:14:29;28.70;27.90
26579;DHT22;14227;47.674;19.320;2023-05-29T17:16:56;28.40;28.40
26579;DHT22;14227;47.674;19.320;2023-05-29T17:19:21;28.10;29.00
26579;DHT22;14227;47.674;19.320;2023-05-29T17:21:47;27.70;29.90
26579;DHT22;14227;47.674;19.320;2023-05-29T17:24:13;27.40;31.20
26579;DHT22;14227;47.674;19.320;2023-05-29T17:26:39;27.10;33.30
26579;DHT22;14227;47.674;19.320;2023-05-29T17:29:05;26.90;35.30
26579;DHT22;14227;47.674;19.320;2023-05-29T17:31:32;26.50;36.20
26579;DHT22;14227;47.674;19.320;2023-05-29T17:33:58;26.20;36.10
26579;DHT22;14227;47.674;19.320;2023-05-29T17:36:23;25.90;37.00
26579;DHT22;14227;47.674;19.320;2023-05-29T17:38:49;25.60;38.00
26579;DHT22;14227;47.674;19.320;2023-05-29T17:41:17;25.40;39.10
26579;DHT22;14227;47.674;19.320;2023-05-29T17:43:43;25.20;40.20
26579;DHT22;14227;47.674;19.320;2023-05-29T17:46:08;25.00;40.20
26579;DHT22;14227;47.674;19.320;2023-05-29T17:48:34;24.70;41.80
26579;DHT22;14227;47.674;19.320;2023-05-29T17:51:00;24.50;43.20
26579;DHT22;14227;47.674;19.320;2023-05-29T17:53:26;24.30;44.30
26579;DHT22;14227;47.674;19.320;2023-05-29T17:55:52;24.10;45.20
26579;DHT22;14227;47.674;19.320;2023-05-29T17:58:19;23.80;44.80
26579;DHT22;14227;47.674;19.320;2023-05-29T18:00:44;23.60;44.90
26579;DHT22;14227;47.674;19.320;2023-05-29T18:03:10;23.40;45.30
26579;DHT22;14227;47.674;19.320;2023-05-29T18:05:36;23.20;45.40
26579;DHT22;14227;47.674;19.320;2023-05-29T18:08:02;23.00;45.40
26579;DHT22;14227;47.674;19.320;2023-05-29T18:10:28;22.80;46.80
26579;DHT22;14227;47.674;19.320;2023-05-29T18:12:54;22.60;47.90
26579;DHT22;14227;47.674;19.320;2023-05-29T18:15:19;22.40;48.60
26579;DHT22;14227;47.674;19.320;2023-05-29T18:17:46;22.10;49.50
26579;DHT22;14227;47.674;19.320;2023-05-29T18:20:12;21.90;50.00
26579;DHT22;14227;47.674;19.320;2023-05-29T18:22:39;21.70;50.20
26579;DHT22;14227;47.674;19.320;2023-05-29T18:25:05;21.50;51.10
26579;DHT22;14227;47.674;19.320;2023-05-29T18:27:31;21.30;52.00
26579;DHT22;14227;47.674;19.320;2023-05-29T18:29:57;21.10;52.70
26579;DHT22;14227;47.674;19.320;2023-05-29T18:32:25;20.90;53.70
26579;DHT22;14227;47.674;19.320;2023-05-29T18:34:52;20.70;53.80
26579;DHT22;14227;47.674;19.320;2023-05-29T18:37:17;20.50;54.70
26579;DHT22;14227;47.674;19.320;2023-05-29T18:39:43;20.40;55.40
26579;DHT22;14227;47.674;19.320;2023-05-29T18:42:09;20.20;55.40
26579;DHT22;14227;47.674;19.320;2023-05-29T18:44:35;20.00;56.10
26579;DHT22;14227;47.674;19.320;2023-05-29T18:47:01;19.80;56.70
26579;DHT22;14227;47.674;19.320;2023-05-29T18:49:27;19.70;57.30
26579;DHT22;14227;47.674;19.320;2023-05-29T18:51:53;19.50;57.30
26579;DHT22;14227;47.674;19.320;2023-05-29T18:54:19;19.30;57.50
26579;DHT22;14227;47.674;19.320;2023-05-29T18:56:44;19.20;57.90
26579;DHT22;14227;47.674;19.320;2023-05-29T18:59:10;19.00;58.20
26579;DHT22;14227;47.674;19.320;2023-05-29T19:01:36;18.90;58.70
26579;DHT22;14227;47.674;19.320;2023-05-29T19:04:02;18.70;59.10
26579;DHT22;14227;47.674;19.320;2023-05-29T19:06:31;18.60;59.30
26579;DHT22;14227;47.674;19.320;2023-05-29T19:08:57;18.50;59.70
26579;DHT22;14227;47.674;19.320;2023-05-29T19:11:23;18.30;60.00
26579;DHT22;14227;47.674;19.320;2023-05-29T19:13:50;18.20;60.90
26579;DHT22;14227;47.674;19.320;2023-05-29T19:16:15;18.10;60.80
26579;DHT22;14227;47.674;19.320;2023-05-29T19:18:41;18.00;61.10
26579;DHT22;14227;47.674;19.320;2023-05-29T19:21:08;17.90;61.40
26579;DHT22;14227;47.674;19.320;2023-05-29T19:23:34;17.80;61.70
26579;DHT22;14227;47.674;19.320;2023-05-29T19:25:59;17.80;62.30
26579;DHT22;14227;47.674;19.320;2023-05-29T19:28:25;17.60;63.10
26579;DHT22;14227;47.674;19.320;2023-05-29T19:30:50;17.50;62.90
26579;DHT22;14227;47.674;19.320;2023-05-29T19:33:17;17.50;62.90
26579;DHT22;14227;47.674;19.320;2023-05-29T19:35:43;17.40;63.80
26579;DHT22;14227;47.674;19.320;2023-05-29T19:38:09;17.30;63.50
26579;DHT22;14227;47.674;19.320;2023-05-29T19:40:35;17.20;63.70
26579;DHT22;14227;47.674;19.320;2023-05-29T19:43:03;17.10;63.90
26579;DHT22;14227;47.674;19.320;2023-05-29T19:45:29;17.00;63.90
26579;DHT22;14227;47.674;19.320;2023-05-29T19:47:55;17.00;63.80
26579;DHT22;14227;47.674;19.320;2023-05-29T19:50:21;16.90;63.70
26579;DHT22;14227;47.674;19.320;2023-05-29T19:52:48;16.80;63.70
26579;DHT22;14227;47.674;19.320;2023-05-29T19:55:14;16.70;64.00
26579;DHT22;14227;47.674;19.320;2023-05-29T19:57:40;16.70;64.80
26579;DHT22;14227;47.674;19.320;2023-05-29T20:00:08;16.60;65.10
26579;DHT22;14227;47.674;19.320;2023-05-29T20:02:34;16.60;65.90
26579;DHT22;14227;47.674;19.320;2023-05-29T20:05:06;16.50;65.30
26579;DHT22;14227;47.674;19.320;2023-05-29T20:07:32;16.50;65.20
26579;DHT22;14227;47.674;19.320;2023-05-29T20:09:58;16.40;65.50
26579;DHT22;14227;47.674;19.320;2023-05-29T20:12:24;16.40;66.10
26579;DHT22;14227;47.674;19.320;2023-05-29T20:14:50;16.30;66.10
26579;DHT22;14227;47.674;19.320;2023-05-29T20:17:16;16.30;65.70
26579;DHT22;14227;47.674;19.320;2023-05-29T20:19:44;16.20;65.60
26579;DHT22;14227;47.674;19.320;2023-05-29T20:22:09;16.20;65.90
26579;DHT22;14227;47.674;19.320;2023-05-29T20:24:35;16.10;65.70
26579;DHT22;14227;47.674;19.320;2023-05-29T20:27:01;16.00;66.00